createdAt,value
2022-10-22T00:00:51.953Z,33.20
2022-10-22T00:01:51.933Z,32.30
2022-10-22T00:02:51.996Z,37.70
2022-10-22T00:03:51.903Z,39.50
2022-10-22T00:04:51.911Z,38.70
2022-10-22T00:05:51.878Z,39.10
2022-10-22T00:06:51.869Z,34.00
2022-10-22T00:07:51.853Z,38.80
2022-10-22T00:08:51.881Z,37.30
2022-10-22T00:09:51.910Z,36.40
2022-10-22T00:10:51.816Z,35.30
2022-10-22T00:11:51.835Z,35.70
2022-10-22T00:12:51.903Z,30.60
2022-10-22T00:13:51.769Z,40.50
2022-10-22T00:14:51.772Z,36.90
2022-10-22T00:15:51.743Z,38.60
2022-10-22T00:16:51.737Z,39.40
2022-10-22T00:17:51.728Z,37.40
2022-10-22T00:18:51.795Z,41.90
2022-10-22T00:20:01.158Z,39.80
2022-10-22T00:20:51.719Z,39.40
2022-10-22T00:21:51.735Z,41.30
2022-10-22T00:23:51.785Z,43.50
2022-10-22T00:24:51.707Z,40.30
2022-10-22T00:25:51.671Z,44.30
2022-10-22T00:26:51.632Z,37.80
2022-10-22T00:27:51.632Z,43.70
2022-10-22T00:28:51.788Z,42.70
2022-10-22T00:29:51.674Z,35.50
2022-10-22T00:30:51.649Z,39.20
2022-10-22T00:31:51.620Z,36.30
2022-10-22T00:32:51.564Z,43.00
2022-10-22T00:33:51.571Z,44.30
2022-10-22T00:34:51.539Z,42.90
2022-10-22T00:35:51.627Z,41.90
2022-10-22T00:36:51.499Z,43.40
2022-10-22T00:37:51.502Z,43.20
2022-10-22T00:38:51.488Z,48.60
2022-10-22T00:39:51.463Z,43.40
2022-10-22T01:26:11.793Z,26.90
2022-10-22T01:27:10.973Z,28.10
2022-10-22T01:28:10.991Z,29.20
2022-10-22T01:29:10.935Z,31.90
2022-10-22T01:30:10.929Z,29.90
2022-10-22T01:31:10.922Z,27.40
2022-10-22T01:32:10.922Z,30.50
2022-10-22T01:33:10.891Z,33.80
2022-10-22T01:34:10.914Z,30.80
2022-10-22T01:35:10.874Z,28.60
2022-10-22T01:36:10.853Z,31.00
2022-10-22T01:37:10.833Z,30.50
2022-10-22T01:38:10.827Z,29.90
2022-10-22T01:39:10.793Z,29.80
2022-10-22T01:40:10.792Z,31.40
2022-10-22T01:41:10.790Z,26.40
2022-10-22T01:42:10.765Z,29.10
2022-10-22T01:43:10.750Z,25.10
2022-10-22T01:44:10.746Z,31.30
2022-10-22T01:45:10.730Z,25.80
2022-10-22T01:46:10.735Z,26.50
2022-10-22T01:47:10.691Z,29.30
2022-10-22T01:48:10.691Z,31.50
2022-10-22T01:49:10.664Z,27.50
2022-10-22T01:50:10.664Z,28.60
2022-10-22T01:51:10.676Z,27.20
2022-10-22T01:52:10.623Z,29.40
2022-10-22T01:53:10.620Z,28.70
2022-10-22T01:54:10.616Z,37.70
2022-10-22T01:55:10.593Z,33.90
2022-10-22T01:56:10.613Z,34.70
2022-10-22T01:57:10.581Z,36.00
2022-10-22T01:58:10.579Z,29.20
2022-10-22T01:59:10.527Z,32.80
2022-10-22T02:00:10.553Z,30.50
2022-10-22T02:01:10.557Z,36.60
2022-10-22T02:02:10.498Z,31.90
2022-10-22T02:03:10.499Z,31.30
2022-10-22T02:04:10.470Z,33.00
2022-10-22T02:05:10.454Z,37.30
2022-10-22T02:06:10.440Z,27.90
2022-10-22T02:07:10.479Z,30.50
2022-10-22T02:08:10.411Z,29.40
2022-10-22T02:09:10.440Z,31.60
2022-10-22T02:10:10.399Z,31.40
2022-10-22T02:11:10.372Z,32.20
2022-10-22T02:12:10.371Z,37.10
2022-10-22T02:13:10.342Z,27.30
2022-10-22T02:14:10.322Z,28.50
2022-10-22T02:15:10.313Z,27.90
2022-10-22T02:16:10.304Z,31.60
2022-10-22T02:17:10.281Z,31.00
2022-10-22T02:18:10.268Z,33.00
2022-10-22T02:24:31.159Z,27.60
2022-10-22T02:25:30.336Z,29.20
2022-10-22T02:26:30.329Z,32.80
2022-10-22T02:27:30.310Z,35.40
2022-10-22T02:28:30.422Z,29.40
2022-10-22T02:29:30.305Z,30.20
2022-10-22T02:30:30.283Z,30.40
2022-10-22T02:31:30.263Z,36.90
2022-10-22T02:32:30.242Z,29.40
2022-10-22T02:33:30.226Z,30.60
2022-10-22T02:34:30.214Z,30.70
2022-10-22T02:35:30.200Z,25.20
2022-10-22T02:36:30.203Z,29.30
2022-10-22T02:37:30.177Z,31.50
2022-10-22T02:38:30.158Z,30.80
2022-10-22T02:39:30.173Z,28.50
2022-10-22T02:40:30.130Z,34.20
2022-10-22T02:41:30.133Z,32.10
2022-10-22T02:42:30.105Z,34.70
2022-10-22T02:43:30.094Z,31.00
2022-10-22T02:44:30.108Z,32.10
2022-10-22T02:45:30.070Z,38.90
2022-10-22T02:46:30.084Z,33.00
2022-10-22T02:47:30.045Z,33.40
2022-10-22T02:48:30.031Z,30.60
2022-10-22T02:49:30.026Z,31.80
2022-10-22T02:50:30.006Z,33.00
2022-10-22T02:51:29.992Z,25.40
2022-10-22T02:52:29.970Z,29.60
2022-10-22T02:53:29.964Z,30.10
2022-10-22T02:54:29.949Z,30.90
2022-10-22T02:55:29.934Z,25.40
2022-10-22T02:56:29.929Z,29.30
2022-10-22T02:57:29.919Z,26.00
2022-10-22T02:58:29.906Z,33.00
2022-10-22T02:59:29.886Z,25.30
2022-10-22T03:00:29.933Z,25.80
2022-10-22T03:01:29.863Z,28.00
2022-10-22T03:02:29.850Z,26.70
2022-10-22T03:03:29.832Z,28.80
2022-10-22T03:04:29.818Z,26.10
2022-10-22T03:05:29.805Z,26.80
2022-10-22T03:06:29.798Z,27.30
2022-10-22T03:07:29.777Z,31.20
2022-10-22T03:08:29.754Z,26.70
2022-10-22T03:43:10.234Z,32.30
2022-10-22T03:44:09.452Z,27.70
2022-10-22T03:45:09.437Z,27.10
2022-10-22T03:46:09.425Z,21.00
2022-10-22T03:47:09.412Z,29.00
2022-10-22T03:48:09.418Z,25.00
2022-10-22T03:49:09.384Z,23.60
2022-10-22T03:50:09.379Z,28.20
2022-10-22T03:51:09.365Z,25.10
2022-10-22T03:52:09.372Z,28.20
2022-10-22T03:53:09.322Z,22.80
2022-10-22T03:54:09.307Z,26.20
2022-10-22T03:55:10.451Z,25.90
2022-10-22T03:56:09.289Z,27.80
2022-10-22T03:57:09.276Z,29.30
2022-10-22T03:58:09.302Z,27.00
2022-10-22T03:59:09.287Z,25.10
2022-10-22T04:00:09.233Z,25.80
2022-10-22T04:01:09.264Z,22.80
2022-10-22T04:02:09.223Z,31.00
2022-10-22T04:03:09.216Z,23.00
2022-10-22T04:04:09.195Z,25.20
2022-10-22T04:05:09.242Z,20.70
2022-10-22T04:06:09.146Z,25.10
2022-10-22T04:07:09.140Z,25.70
2022-10-22T04:08:09.157Z,25.10
2022-10-22T04:09:09.213Z,20.20
2022-10-22T04:10:09.099Z,25.50
2022-10-22T04:11:09.104Z,26.50
2022-10-22T04:12:09.075Z,24.40
2022-10-22T04:13:09.050Z,20.70
2022-10-22T04:14:09.040Z,23.10
2022-10-22T04:15:09.035Z,23.60
2022-10-22T04:16:09.048Z,22.80
2022-10-22T04:17:09.002Z,20.00
2022-10-22T04:18:09.012Z,23.50
2022-10-22T04:19:08.966Z,21.70
2022-10-22T04:20:08.973Z,20.00
2022-10-22T04:21:08.939Z,25.30
2022-10-22T04:22:08.931Z,20.00
2022-10-22T04:23:08.913Z,21.60
2022-10-22T04:24:08.916Z,19.80
2022-10-22T04:25:08.895Z,21.10
2022-10-22T04:26:08.891Z,22.70
2022-10-22T04:27:08.878Z,23.50
2022-10-22T04:28:08.851Z,21.20
2022-10-22T04:29:11.922Z,17.70
2022-10-22T04:30:08.829Z,20.00
2022-10-22T04:31:08.805Z,21.80
2022-10-22T04:32:08.811Z,20.30
2022-10-22T04:33:08.776Z,21.80
2022-10-22T04:34:08.767Z,22.80
2022-10-22T04:35:08.759Z,20.90
2022-10-22T04:36:08.742Z,27.80
2022-10-22T04:37:08.736Z,23.40
2022-10-22T04:38:08.721Z,23.80
2022-10-22T04:39:08.689Z,23.30
2022-10-22T04:40:08.685Z,23.90
2022-10-22T04:41:08.671Z,25.50
2022-10-22T04:42:08.675Z,22.40
2022-10-22T04:43:08.649Z,27.30
2022-10-22T04:44:12.278Z,25.60
2022-10-22T04:45:08.633Z,21.60
2022-10-22T04:46:08.606Z,25.40
2022-10-22T04:47:08.617Z,24.90
2022-10-22T04:48:08.575Z,24.30
2022-10-22T04:49:08.572Z,24.60
2022-10-22T04:50:08.554Z,23.90
2022-10-22T04:51:08.535Z,24.20
2022-10-22T04:52:08.533Z,26.30
2022-10-22T04:53:08.506Z,24.40
2022-10-22T04:54:08.492Z,26.50
2022-10-22T04:55:08.488Z,23.20
2022-10-22T04:56:08.473Z,20.00
2022-10-22T04:57:08.470Z,22.20
2022-10-22T04:58:08.478Z,18.60
2022-10-22T04:59:08.439Z,18.50
2022-10-22T05:00:08.425Z,20.80
2022-10-22T05:01:08.472Z,19.70
2022-10-22T05:02:08.406Z,19.70
2022-10-22T05:03:08.378Z,19.70
2022-10-22T05:04:08.374Z,28.50
2022-10-22T05:05:08.405Z,18.50
2022-10-22T05:06:08.381Z,21.20
2022-10-22T05:07:08.335Z,21.20
2022-10-22T05:08:08.314Z,20.90
2022-10-22T05:09:08.340Z,18.70
2022-10-22T05:10:08.323Z,21.20
2022-10-22T05:11:08.266Z,20.80
2022-10-22T05:12:08.247Z,20.60
2022-10-22T05:13:08.255Z,17.20
2022-10-22T05:14:08.220Z,17.30
2022-10-22T05:15:08.244Z,18.90
2022-10-22T05:16:08.198Z,18.70
2022-10-22T05:17:31.345Z,19.50
2022-10-22T05:18:08.173Z,19.60
2022-10-22T05:19:08.160Z,17.70
2022-10-22T05:30:29.093Z,15.40
2022-10-22T05:31:30.092Z,17.80
2022-10-22T05:32:30.095Z,27.40
2022-10-22T05:33:30.053Z,22.20
2022-10-22T05:34:30.037Z,22.50
2022-10-22T05:35:30.033Z,20.90
2022-10-22T05:36:30.008Z,22.30
2022-10-22T05:37:30.022Z,18.50
2022-10-22T05:38:30.077Z,18.00
2022-10-22T05:39:29.987Z,22.60
2022-10-22T05:40:31.457Z,20.10
2022-10-22T05:41:29.934Z,22.80
2022-10-22T05:42:29.954Z,19.40
2022-10-22T05:43:29.927Z,24.00
2022-10-22T05:44:29.909Z,23.20
2022-10-22T05:45:29.955Z,19.70
2022-10-22T05:46:29.875Z,20.10
2022-10-22T05:47:29.866Z,18.20
2022-10-22T05:48:29.931Z,17.90
2022-10-22T05:49:29.843Z,18.90
2022-10-22T05:50:29.825Z,20.40
2022-10-22T05:51:29.817Z,22.50
2022-10-22T05:52:29.808Z,19.90
2022-10-22T05:53:29.773Z,22.80
2022-10-22T05:54:29.775Z,19.90
2022-10-22T05:55:29.760Z,19.80
2022-10-22T05:56:29.747Z,26.50
2022-10-22T05:57:29.720Z,20.70
2022-10-22T06:04:10.763Z,22.30
2022-10-22T06:05:11.759Z,25.30
2022-10-22T06:06:11.733Z,27.00
2022-10-22T06:07:11.747Z,26.60
2022-10-22T06:08:15.496Z,25.90
2022-10-22T06:09:11.776Z,32.40
2022-10-22T06:10:11.709Z,34.40
2022-10-22T06:11:11.684Z,34.10
2022-10-22T06:12:11.673Z,33.80
2022-10-22T06:13:11.643Z,35.30
2022-10-22T06:14:11.635Z,39.10
2022-10-22T06:15:11.622Z,39.70
2022-10-22T06:16:11.611Z,38.40
2022-10-22T06:17:11.594Z,40.80
2022-10-22T06:18:11.580Z,48.30
2022-10-22T06:19:11.578Z,46.70
2022-10-22T06:20:11.552Z,48.80
2022-10-22T06:21:11.553Z,42.40
2022-10-22T06:22:11.532Z,46.10
2022-10-22T06:23:11.529Z,45.60
2022-10-22T06:24:11.506Z,43.10
2022-10-22T06:25:11.492Z,44.90
2022-10-22T06:26:11.468Z,42.70
2022-10-22T06:27:11.463Z,48.60
2022-10-22T06:28:11.507Z,45.90
2022-10-22T06:29:11.439Z,44.30
2022-10-22T06:30:11.450Z,54.50
2022-10-22T06:31:11.428Z,51.30
2022-10-22T06:32:11.435Z,47.00
2022-10-22T06:33:11.498Z,52.50
2022-10-22T06:34:11.364Z,52.60
2022-10-22T06:35:12.458Z,47.90
2022-10-22T06:36:11.365Z,52.60
2022-10-22T06:37:11.338Z,59.70
2022-10-22T06:38:11.308Z,54.90
2022-10-22T06:39:11.334Z,57.50
2022-10-22T06:40:11.287Z,55.00
2022-10-22T06:41:11.279Z,48.30
2022-10-22T06:42:11.281Z,53.40
2022-10-22T06:43:11.254Z,48.40
2022-10-22T06:44:11.226Z,47.80
2022-10-22T06:45:11.233Z,52.00
2022-10-22T06:46:14.721Z,57.00
2022-10-22T06:47:11.323Z,51.00
2022-10-22T06:48:11.219Z,50.30
2022-10-22T06:49:11.177Z,54.00
2022-10-22T06:50:11.150Z,51.10
2022-10-22T06:51:11.156Z,56.10
2022-10-22T06:52:11.132Z,56.70
2022-10-22T06:53:11.157Z,54.40
2022-10-22T06:54:11.100Z,55.30
2022-10-22T06:55:11.098Z,53.80
2022-10-22T06:56:11.092Z,51.50
2022-10-22T06:57:11.086Z,54.00
2022-10-22T06:58:11.036Z,46.80
2022-10-22T06:59:11.027Z,58.90
2022-10-22T07:00:12.121Z,55.50
2022-10-22T07:01:11.090Z,55.90
2022-10-22T07:02:11.000Z,52.70
2022-10-22T07:03:09.971Z,56.70
2022-10-22T07:04:10.957Z,58.40
2022-10-22T07:05:10.952Z,55.20
2022-10-22T07:11:32.800Z,59.50
2022-10-22T07:12:00.973Z,60.00
2022-10-22T07:13:01.055Z,67.90
2022-10-22T07:14:22.047Z,60.10
2022-10-22T07:15:00.956Z,60.50
2022-10-22T07:16:00.968Z,53.70
2022-10-22T07:17:00.955Z,61.00
2022-10-22T07:18:00.965Z,58.70
2022-10-22T07:19:00.890Z,60.10
2022-10-22T07:20:00.917Z,59.50
2022-10-22T07:21:00.869Z,65.10
2022-10-22T07:22:00.864Z,73.30
2022-10-22T07:23:00.885Z,59.00
2022-10-22T07:24:00.854Z,68.60
2022-10-22T07:25:05.214Z,60.50
2022-10-22T07:26:00.857Z,65.20
2022-10-22T07:27:00.811Z,68.70
2022-10-22T07:28:00.795Z,65.20
2022-10-22T07:29:00.802Z,62.80
2022-10-22T07:30:00.781Z,65.30
2022-10-22T07:31:00.802Z,64.00
2022-10-22T07:32:00.726Z,63.30
2022-10-22T07:33:00.714Z,57.10
2022-10-22T07:34:00.693Z,69.70
2022-10-22T07:35:00.703Z,68.80
2022-10-22T07:36:00.661Z,70.10
2022-10-22T07:37:01.046Z,68.30
2022-10-22T07:38:00.641Z,70.70
2022-10-22T07:39:00.616Z,70.00
2022-10-22T07:40:03.710Z,76.90
2022-10-22T07:41:00.595Z,69.30
2022-10-22T07:42:00.634Z,74.80
2022-10-22T07:43:00.578Z,80.90
2022-10-22T07:44:00.616Z,88.60
2022-10-22T07:45:00.571Z,75.80
2022-10-22T07:46:00.526Z,71.50
2022-10-22T07:47:00.524Z,80.70
2022-10-22T07:48:00.555Z,81.90
2022-10-22T07:49:00.486Z,78.60
2022-10-22T07:50:00.475Z,75.20
2022-10-22T07:51:00.461Z,81.50
2022-10-22T07:52:00.483Z,80.50
2022-10-22T07:53:00.443Z,81.70
2022-10-22T07:54:00.462Z,76.50
2022-10-22T07:55:00.434Z,71.10
2022-10-22T07:56:00.392Z,62.90
2022-10-22T07:57:00.422Z,65.20
2022-10-22T07:58:00.396Z,63.30
2022-10-22T07:59:03.437Z,65.90
2022-10-22T08:00:00.389Z,58.60
2022-10-22T08:01:00.380Z,60.00
2022-10-22T08:02:00.359Z,65.70
2022-10-22T08:03:00.337Z,70.40
2022-10-22T08:04:00.450Z,61.40
2022-10-22T08:05:00.431Z,63.00
2022-10-22T08:06:02.202Z,60.50
2022-10-22T08:07:00.241Z,57.00
2022-10-22T08:08:16.524Z,68.50
2022-10-22T08:10:14.123Z,56.10
2022-10-22T08:12:59.500Z,66.70
2022-10-22T08:15:24.467Z,62.40
2022-10-22T08:21:00.283Z,57.60
2022-10-22T08:22:01.235Z,62.10
2022-10-22T08:23:01.234Z,64.30
2022-10-22T08:24:01.289Z,71.60
2022-10-22T08:25:01.181Z,65.30
2022-10-22T08:26:01.200Z,64.00
2022-10-22T08:27:01.150Z,61.60
2022-10-22T08:28:01.146Z,61.30
2022-10-22T08:29:01.135Z,58.80
2022-10-22T08:30:01.111Z,54.20
2022-10-22T08:31:22.119Z,55.90
2022-10-22T08:32:01.150Z,54.10
2022-10-22T08:33:03.214Z,54.50
2022-10-22T08:34:01.154Z,51.10
2022-10-22T08:35:01.039Z,49.80
2022-10-22T08:36:01.035Z,52.50
2022-10-22T08:37:01.054Z,44.80
2022-10-22T08:38:01.019Z,46.10
2022-10-22T08:39:00.993Z,43.70
2022-10-22T08:40:01.047Z,44.10
2022-10-22T08:41:01.061Z,54.80
2022-10-22T08:42:00.986Z,55.60
2022-10-22T08:43:00.994Z,47.20
2022-10-22T08:44:01.036Z,47.80
2022-10-22T08:45:00.919Z,43.90
2022-10-22T08:46:00.946Z,41.60
2022-10-22T08:47:00.917Z,37.60
2022-10-22T08:48:00.922Z,33.20
2022-10-22T08:49:00.948Z,33.30
2022-10-22T08:50:00.900Z,34.00
2022-10-22T08:51:00.896Z,40.10
2022-10-22T08:52:00.854Z,44.30
2022-10-22T08:53:01.015Z,36.30
2022-10-22T08:54:00.826Z,37.20
2022-10-22T08:55:00.809Z,36.10
2022-10-22T08:56:00.770Z,40.20
2022-10-22T08:57:00.812Z,37.60
2022-10-22T08:58:00.768Z,32.10
2022-10-22T08:59:00.735Z,35.50
2022-10-22T09:00:00.730Z,39.90
2022-10-22T09:01:00.719Z,38.60
2022-10-22T09:02:00.690Z,35.20
2022-10-22T09:03:00.684Z,27.30
2022-10-22T09:04:00.654Z,36.40
2022-10-22T09:05:00.672Z,34.30
2022-10-22T09:06:00.634Z,36.90
2022-10-22T09:07:00.641Z,29.10
2022-10-22T09:08:00.620Z,38.30
2022-10-22T09:09:00.649Z,32.80
2022-10-22T09:10:00.618Z,33.50
2022-10-22T09:11:00.566Z,34.40
2022-10-22T09:12:00.605Z,42.50
2022-10-22T09:13:00.525Z,31.30
2022-10-22T09:14:00.599Z,34.40
2022-10-22T09:15:00.551Z,29.60
2022-10-22T09:16:00.555Z,37.80
2022-10-22T09:17:00.485Z,27.90
2022-10-22T09:18:00.470Z,29.00
2022-10-22T09:19:00.469Z,24.20
2022-10-22T09:20:00.516Z,30.30
2022-10-22T09:21:00.421Z,35.30
2022-10-22T09:22:00.413Z,24.30
2022-10-22T09:23:00.542Z,24.20
2022-10-22T09:24:00.378Z,22.00
2022-10-22T09:25:00.374Z,18.80
2022-10-22T09:26:00.343Z,25.10
2022-10-22T09:27:00.340Z,18.60
2022-10-22T09:28:00.315Z,15.80
2022-10-22T09:29:00.358Z,15.90
2022-10-22T09:30:00.318Z,24.10
2022-10-22T09:31:00.286Z,17.40
2022-10-22T09:32:00.374Z,14.60
2022-10-22T09:33:00.259Z,21.00
2022-10-22T09:34:00.259Z,14.50
2022-10-22T09:35:00.247Z,12.40
2022-10-22T09:36:00.211Z,9.80
2022-10-22T09:37:00.219Z,12.10
2022-10-22T09:38:00.184Z,10.60
2022-10-22T09:39:00.197Z,14.30
2022-10-22T09:40:00.170Z,12.60
2022-10-22T09:41:00.161Z,17.70
2022-10-22T09:42:00.126Z,9.90
2022-10-22T09:43:00.141Z,12.30
2022-10-22T09:44:00.105Z,7.30
2022-10-22T09:45:00.122Z,8.20
2022-10-22T09:46:00.098Z,9.70
2022-10-22T09:47:00.104Z,13.00
2022-10-22T09:48:01.931Z,10.50
2022-10-22T09:49:00.039Z,8.80
2022-10-22T09:50:00.033Z,7.20
2022-10-22T09:51:00.012Z,7.30
2022-10-22T09:51:59.999Z,9.90
2022-10-22T09:52:58.990Z,8.80
2022-10-22T09:53:59.980Z,4.20
2022-10-22T09:54:59.968Z,7.00
2022-10-22T09:55:59.965Z,8.50
2022-10-22T09:56:59.958Z,7.80
2022-10-22T09:57:59.974Z,12.50
2022-10-22T09:58:59.919Z,7.90
2022-10-22T09:59:59.890Z,4.90
2022-10-22T10:00:59.887Z,7.60
2022-10-22T10:02:13.335Z,6.30
2022-10-22T10:02:59.908Z,6.50
2022-10-22T10:03:59.831Z,12.40
2022-10-22T10:04:59.838Z,8.50
2022-10-22T10:06:03.062Z,11.20
2022-10-22T10:06:59.822Z,13.50
2022-10-22T10:07:59.768Z,5.80
2022-10-22T10:08:59.834Z,11.30
2022-10-22T10:09:59.760Z,6.60
2022-10-22T10:10:59.734Z,10.80
2022-10-22T10:11:59.725Z,9.30
2022-10-22T10:12:59.714Z,8.70
2022-10-22T10:13:59.713Z,10.20
2022-10-22T10:14:59.697Z,11.00
2022-10-22T10:15:59.668Z,10.30
2022-10-22T10:16:59.679Z,8.90
2022-10-22T10:17:59.649Z,9.60
2022-10-22T10:18:59.653Z,8.60
2022-10-22T10:20:02.921Z,12.90
2022-10-22T10:20:59.682Z,6.50
2022-10-22T10:21:59.597Z,7.40
2022-10-22T10:22:59.559Z,8.40
2022-10-22T10:23:59.555Z,6.00
2022-10-22T10:24:59.657Z,14.20
2022-10-22T10:25:59.583Z,9.60
2022-10-22T10:26:59.524Z,8.80
2022-10-22T10:27:59.529Z,9.20
2022-10-22T10:28:59.486Z,8.60
2022-10-22T10:29:59.494Z,5.20
2022-10-22T10:30:59.454Z,8.40
2022-10-22T10:31:59.453Z,10.00
2022-10-22T10:32:59.442Z,6.20
2022-10-22T10:33:59.427Z,4.50
2022-10-22T10:34:59.423Z,11.50
2022-10-22T10:35:59.436Z,12.20
2022-10-22T10:36:58.372Z,6.10
2022-10-22T10:37:59.376Z,9.80
2022-10-22T10:38:59.357Z,6.80
2022-10-22T10:39:59.377Z,8.30
2022-10-22T10:40:59.347Z,9.00
2022-10-22T10:53:40.650Z,7.50
2022-10-22T10:58:40.260Z,5.10
2022-10-22T10:59:08.485Z,5.70
2022-10-22T11:09:50.233Z,5.60
2022-10-22T11:10:51.241Z,6.10
2022-10-22T11:11:51.203Z,8.10
2022-10-22T11:12:51.216Z,5.80
2022-10-22T11:13:51.181Z,12.30
2022-10-22T11:14:51.193Z,5.90
2022-10-22T11:15:51.179Z,7.20
2022-10-22T11:16:51.145Z,6.70
2022-10-22T11:17:51.182Z,8.60
2022-10-22T11:18:51.122Z,4.50
2022-10-22T11:19:53.113Z,12.00
2022-10-22T11:20:51.110Z,5.50
2022-10-22T11:21:51.093Z,9.00
2022-10-22T11:23:17.694Z,9.90
2022-10-22T11:23:51.050Z,7.20
2022-10-22T11:24:51.034Z,8.50
2022-10-22T11:25:51.051Z,5.20
2022-10-22T11:26:51.046Z,3.70
2022-10-22T11:27:51.033Z,6.10
2022-10-22T11:28:50.997Z,6.90
2022-10-22T11:29:51.073Z,9.40
2022-10-22T11:30:51.002Z,8.90
2022-10-22T11:31:50.963Z,10.00
2022-10-22T11:32:50.928Z,6.40
2022-10-22T11:33:50.925Z,4.30
2022-10-22T11:34:50.893Z,5.20
2022-10-22T11:35:50.880Z,9.80
2022-10-22T11:36:50.894Z,9.40
2022-10-22T11:37:50.915Z,6.20
2022-10-22T11:38:50.844Z,11.70
2022-10-22T11:39:51.807Z,9.50
2022-10-22T11:40:50.834Z,8.70
2022-10-22T11:41:50.813Z,9.50
2022-10-22T11:42:50.803Z,5.70
2022-10-22T11:43:50.821Z,9.90
2022-10-22T11:45:49.758Z,10.70
2022-10-22T11:46:50.755Z,8.10
2022-10-22T11:47:50.745Z,5.60
2022-10-22T11:48:50.736Z,11.80
2022-10-22T11:49:50.695Z,6.30
2022-10-22T11:50:50.695Z,6.80
2022-10-22T11:51:50.707Z,6.80
2022-10-22T11:52:50.658Z,8.30
2022-10-22T11:53:50.654Z,9.70
2022-10-22T11:54:50.660Z,8.70
2022-10-22T11:55:50.652Z,7.30
2022-10-22T11:56:50.623Z,5.00
2022-10-22T11:57:50.601Z,4.60
2022-10-22T11:58:53.777Z,6.70
2022-10-22T11:59:50.601Z,5.20
2022-10-22T12:00:50.591Z,5.50
2022-10-22T12:01:50.586Z,4.40
2022-10-22T12:02:50.541Z,8.30
2022-10-22T12:03:50.533Z,8.70
2022-10-22T12:04:50.623Z,6.80
2022-10-22T12:05:50.506Z,7.10
2022-10-22T12:06:50.552Z,10.70
2022-10-22T12:07:50.457Z,9.40
2022-10-22T12:08:50.516Z,6.50
2022-10-22T12:09:50.459Z,6.50
2022-10-22T12:10:50.511Z,6.70
2022-10-22T12:11:50.519Z,8.40
2022-10-22T12:12:50.471Z,7.40
2022-10-22T12:13:50.387Z,9.50
2022-10-22T12:14:50.366Z,5.90
2022-10-22T12:15:50.348Z,9.20
2022-10-22T12:16:56.194Z,4.00
2022-10-22T12:17:50.356Z,6.60
2022-10-22T12:18:50.372Z,6.30
2022-10-22T12:19:50.305Z,6.30
2022-10-22T12:20:50.282Z,10.60
2022-10-22T12:21:50.310Z,8.20
2022-10-22T12:22:50.394Z,5.10
2022-10-22T12:23:50.242Z,6.50
2022-10-22T12:24:50.241Z,9.20
2022-10-22T12:25:50.237Z,5.40
2022-10-22T12:26:50.224Z,6.80
2022-10-22T12:27:50.223Z,9.40
2022-10-22T12:28:50.203Z,10.50
2022-10-22T12:29:50.165Z,7.80
2022-10-22T12:30:50.171Z,7.60
2022-10-22T12:31:50.128Z,9.70
2022-10-22T12:32:50.131Z,10.60
2022-10-22T12:33:50.119Z,8.90
2022-10-22T12:35:49.077Z,7.40
2022-10-22T12:36:50.068Z,7.80
2022-10-22T12:37:50.062Z,12.10
2022-10-22T12:38:50.099Z,6.80
2022-10-22T12:39:50.046Z,5.90
2022-10-22T12:40:50.021Z,7.50
2022-10-22T12:41:50.072Z,10.30
2022-10-22T12:42:50.009Z,6.10
2022-10-22T12:43:50.057Z,5.60
2022-10-22T12:44:49.974Z,8.00
2022-10-22T12:45:49.994Z,9.10
2022-10-22T12:46:53.016Z,9.00
2022-10-22T12:47:49.925Z,6.60
2022-10-22T12:48:49.907Z,8.00
2022-10-22T12:49:49.892Z,8.00
2022-10-22T12:50:49.895Z,9.20
2022-10-22T12:51:49.898Z,10.30
2022-10-22T12:52:49.862Z,9.80
2022-10-22T12:53:49.837Z,7.90
2022-10-22T12:54:49.873Z,6.00
2022-10-22T12:55:49.822Z,6.70
2022-10-22T12:56:49.822Z,8.50
2022-10-22T12:57:49.788Z,10.20
2022-10-22T12:58:49.809Z,6.90
2022-10-22T12:59:50.116Z,14.20
2022-10-22T13:00:49.849Z,6.60
2022-10-22T13:01:49.737Z,6.90
2022-10-22T13:02:49.730Z,7.60
2022-10-22T13:03:49.742Z,6.40
2022-10-22T13:04:49.696Z,10.20
2022-10-22T13:05:49.697Z,7.00
2022-10-22T13:06:49.663Z,6.50
2022-10-22T13:07:49.711Z,5.20
2022-10-22T13:08:49.707Z,8.60
2022-10-22T13:09:49.634Z,10.60
2022-10-22T13:10:49.621Z,7.80
2022-10-22T13:11:49.620Z,9.10
2022-10-22T13:12:49.589Z,9.70
2022-10-22T13:13:49.561Z,5.70
2022-10-22T13:14:49.564Z,11.80
2022-10-22T13:15:49.579Z,6.60
2022-10-22T13:16:49.551Z,4.20
2022-10-22T13:17:49.578Z,4.90
2022-10-22T13:18:49.506Z,8.10
2022-10-22T13:19:49.492Z,7.90
2022-10-22T13:20:49.482Z,8.40
2022-10-22T13:21:49.484Z,6.20
2022-10-22T13:22:49.473Z,10.40
2022-10-22T13:23:49.430Z,5.40
2022-10-22T13:24:49.500Z,6.90
2022-10-22T13:25:49.411Z,5.10
2022-10-22T13:26:49.444Z,7.50
2022-10-22T13:27:49.384Z,11.60
2022-10-22T13:28:49.371Z,7.90
2022-10-22T13:29:49.351Z,9.70
2022-10-22T13:30:49.368Z,7.30
2022-10-22T13:31:49.329Z,3.40
2022-10-22T13:32:49.331Z,6.20
2022-10-22T13:33:49.327Z,6.40
2022-10-22T13:34:49.294Z,8.20
2022-10-22T13:35:49.303Z,5.50
2022-10-22T13:36:49.314Z,5.30
2022-10-22T13:37:49.258Z,7.50
2022-10-22T13:38:49.269Z,6.20
2022-10-22T13:39:49.219Z,8.80
2022-10-22T13:40:49.226Z,4.90
2022-10-22T13:41:49.199Z,6.00
2022-10-22T13:42:49.241Z,7.90
2022-10-22T13:43:49.160Z,8.70
2022-10-22T13:44:49.162Z,8.00
2022-10-22T13:45:49.143Z,4.60
2022-10-22T13:46:49.133Z,6.90
2022-10-22T13:47:49.115Z,5.20
2022-10-22T13:48:49.122Z,6.00
2022-10-22T13:50:10.195Z,6.20
2022-10-22T13:50:49.623Z,7.00
2022-10-22T13:51:49.074Z,6.60
2022-10-22T13:52:49.064Z,5.00
2022-10-22T13:53:49.033Z,5.60
2022-10-22T13:54:49.022Z,5.80
2022-10-22T13:55:49.019Z,5.60
2022-10-22T13:56:48.996Z,5.30
2022-10-22T13:57:49.004Z,8.70
2022-10-22T13:58:48.961Z,11.00
2022-10-22T13:59:48.957Z,4.20
2022-10-22T14:00:49.026Z,5.80
2022-10-22T14:01:48.940Z,7.20
2022-10-22T14:02:48.912Z,4.80
2022-10-22T14:03:48.931Z,5.90
2022-10-22T14:04:48.877Z,9.20
2022-10-22T14:05:48.869Z,5.70
2022-10-22T14:06:48.848Z,5.60
2022-10-22T14:07:48.866Z,9.60
2022-10-22T14:08:48.910Z,8.90
2022-10-22T14:09:48.818Z,9.60
2022-10-22T14:10:48.867Z,5.90
2022-10-22T14:11:48.789Z,5.40
2022-10-22T14:12:52.420Z,7.00
2022-10-22T14:13:48.780Z,10.50
2022-10-22T14:14:48.807Z,9.20
2022-10-22T14:15:48.740Z,6.90
2022-10-22T14:16:48.727Z,7.70
2022-10-22T14:17:48.715Z,9.20
2022-10-22T14:18:48.688Z,4.90
2022-10-22T14:19:48.684Z,8.10
2022-10-22T14:20:48.670Z,4.60
2022-10-22T14:21:48.667Z,15.70
2022-10-22T14:22:48.696Z,6.60
2022-10-22T14:23:48.663Z,5.30
2022-10-22T14:24:48.620Z,19.40
2022-10-22T14:25:48.625Z,7.60
2022-10-22T14:26:48.594Z,8.00
2022-10-22T14:27:48.671Z,3.50
2022-10-22T14:29:08.642Z,7.50
2022-10-22T14:29:48.559Z,6.20
2022-10-22T14:30:48.530Z,7.30
2022-10-22T14:31:48.554Z,6.70
2022-10-22T14:32:48.532Z,5.80
2022-10-22T14:33:48.492Z,5.20
2022-10-22T14:34:48.492Z,11.20
2022-10-22T14:35:48.471Z,4.20
2022-10-22T14:36:48.467Z,5.50
2022-10-22T14:37:48.469Z,5.80
2022-10-22T14:38:48.448Z,5.40
2022-10-22T14:39:48.491Z,6.20
2022-10-22T14:40:48.403Z,6.40
2022-10-22T14:41:48.431Z,5.90
2022-10-22T14:42:48.386Z,10.30
2022-10-22T14:43:48.408Z,10.00
2022-10-22T14:44:48.455Z,6.50
2022-10-22T14:45:48.363Z,7.00
2022-10-22T14:46:48.475Z,7.10
2022-10-22T14:47:48.336Z,6.50
2022-10-22T14:48:48.314Z,9.20
2022-10-22T14:49:48.275Z,6.60
2022-10-22T14:50:48.299Z,5.40
2022-10-22T14:51:48.259Z,6.70
2022-10-22T14:52:48.238Z,6.30
2022-10-22T14:53:48.278Z,5.20
2022-10-22T14:54:48.247Z,5.80
2022-10-22T14:55:48.222Z,5.50
2022-10-22T14:56:48.190Z,6.20
2022-10-22T14:57:48.339Z,13.50
2022-10-22T14:58:48.162Z,3.20
2022-10-22T14:59:48.142Z,5.70
2022-10-22T15:00:48.211Z,5.70
2022-10-22T15:01:48.132Z,7.20
2022-10-22T15:02:48.105Z,7.10
2022-10-22T15:03:48.094Z,8.10
2022-10-22T15:04:48.099Z,6.70
2022-10-22T15:05:48.093Z,6.90
2022-10-22T15:06:48.066Z,7.80
2022-10-22T15:07:48.028Z,13.00
2022-10-22T15:08:48.093Z,7.80
2022-10-22T15:09:48.010Z,9.20
2022-10-22T15:10:48.181Z,4.20
2022-10-22T15:11:47.998Z,6.00
2022-10-22T15:12:47.991Z,8.70
2022-10-22T15:13:47.977Z,6.80
2022-10-22T15:14:47.943Z,6.80
2022-10-22T15:15:48.094Z,4.10
2022-10-22T15:16:47.991Z,7.20
2022-10-22T15:17:47.931Z,7.90
2022-10-22T15:18:47.933Z,5.80
2022-10-22T15:25:09.290Z,8.50
2022-10-22T17:14:59.571Z,12.80
2022-10-22T17:15:20.554Z,14.40
2022-10-22T17:16:20.535Z,26.00
2022-10-22T17:18:56.212Z,20.70